Time;durP1;ratioP1;P1;durP2;ratioP2;P2;SDS_P1;SDS_P2;PMS_P1;PMS_P2;Temp;Humidity;BMP_temperature;BMP_pressure;BME280_temperature;BME280_humidity;BME280_pressure;Samples;Min_cycle;Max_cycle;Signal;HPM_P1;HPM_P2
2021/05/28 00:00:22;;;;;;;6.33;4.10;;;11.90;90.80;;;;;;5074903;28;20626;-88
2021/05/28 00:02:49;;;;;;;4.87;4.47;;;11.80;91.10;;;;;;5071185;28;20625;-88
2021/05/28 00:05:17;;;;;;;5.00;4.40;;;11.70;91.60;;;;;;5073289;28;20657;-89
2021/05/28 00:07:43;;;;;;;6.73;6.00;;;11.70;92.50;;;;;;5084851;28;21193;-89
2021/05/28 00:10:10;;;;;;;6.40;5.80;;;11.60;93.40;;;;;;5087634;28;20651;-88
2021/05/28 00:12:37;;;;;;;6.50;5.90;;;11.50;94.30;;;;;;5070633;28;20926;-89
2021/05/28 00:15:05;;;;;;;6.47;5.87;;;11.50;95.10;;;;;;5085860;28;20623;-88
2021/05/28 00:17:33;;;;;;;7.90;6.67;;;11.50;95.50;;;;;;5090529;28;20974;-88
2021/05/28 00:19:59;;;;;;;7.00;6.40;;;11.60;95.50;;;;;;5105915;28;20624;-88
2021/05/28 00:22:26;;;;;;;9.63;7.70;;;11.80;95.30;;;;;;5092511;28;20613;-88
2021/05/28 00:24:53;;;;;;;7.83;6.70;;;11.70;95.50;;;;;;5080734;28;20692;-88
2021/05/28 00:27:20;;;;;;;8.60;7.67;;;11.80;96.00;;;;;;5076467;28;20621;-87
2021/05/28 00:29:46;;;;;;;8.03;7.33;;;11.60;96.30;;;;;;5089033;28;20979;-89
2021/05/28 00:32:12;;;;;;;10.83;7.47;;;11.70;97.10;;;;;;5090944;28;20612;-88
2021/05/28 00:34:40;;;;;;;8.20;7.40;;;11.90;96.90;;;;;;5072581;28;20681;-88
2021/05/28 00:37:06;;;;;;;9.03;8.20;;;11.80;97.00;;;;;;5070676;28;21092;-88
2021/05/28 00:39:33;;;;;;;10.07;8.57;;;11.80;96.90;;;;;;5077073;28;20602;-88
2021/05/28 00:41:59;;;;;;;9.57;8.67;;;11.80;96.90;;;;;;5069927;28;20613;-88
2021/05/28 00:44:28;;;;;;;12.77;10.10;;;11.60;97.90;;;;;;5077595;28;21226;-87
2021/05/28 00:46:55;;;;;;;9.10;8.23;;;11.80;98.00;;;;;;5070455;28;20605;-88
2021/05/28 00:49:21;;;;;;;9.40;8.40;;;11.90;97.60;;;;;;5076378;28;20621;-87
2021/05/28 00:51:49;;;;;;;9.50;8.50;;;11.90;97.10;;;;;;5086931;28;21161;-87
2021/05/28 00:54:15;;;;;;;8.80;7.70;;;11.80;97.20;;;;;;5080679;28;20640;-87
2021/05/28 00:56:42;;;;;;;9.27;8.40;;;11.80;97.40;;;;;;5089641;28;20620;-87
2021/05/28 00:59:09;;;;;;;9.03;7.83;;;11.80;97.00;;;;;;5084672;28;20671;-88
2021/05/28 01:01:36;;;;;;;8.93;8.03;;;11.70;97.00;;;;;;5087777;28;20731;-87
2021/05/28 01:04:06;;;;;;;11.03;8.10;;;11.80;97.20;;;;;;5070394;28;20664;-87
2021/05/28 01:06:35;;;;;;;7.63;6.83;;;11.80;96.40;;;;;;5077524;28;20614;-88
2021/05/28 01:09:06;;;;;;;8.00;7.20;;;11.50;96.10;;;;;;5083043;28;20633;-87
2021/05/28 01:11:36;;;;;;;7.13;6.40;;;11.40;97.40;;;;;;5086143;28;20622;-87
2021/05/28 01:14:05;;;;;;;7.30;6.60;;;11.70;97.20;;;;;;5082349;28;21070;-88
2021/05/28 01:16:34;;;;;;;7.13;6.40;;;11.70;96.50;;;;;;5073772;28;20979;-88
2021/05/28 01:19:04;;;;;;;8.97;7.53;;;11.50;96.60;;;;;;5084866;28;21270;-88
2021/05/28 01:21:35;;;;;;;6.50;5.90;;;11.60;96.20;;;;;;5079230;28;20636;-88
2021/05/28 01:24:05;;;;;;;6.63;6.03;;;11.50;96.20;;;;;;5077084;28;20668;-87
2021/05/28 01:26:34;;;;;;;8.50;5.93;;;11.60;96.00;;;;;;5073548;28;20636;-88
2021/05/28 01:29:04;;;;;;;7.30;6.17;;;11.70;95.80;;;;;;5092926;28;20686;-88
2021/05/28 01:31:36;;;;;;;6.10;5.50;;;11.60;95.40;;;;;;5078914;28;20616;-88
2021/05/28 01:34:04;;;;;;;6.07;5.47;;;11.80;95.40;;;;;;5087825;28;20743;-88
2021/05/28 01:36:37;;;;;;;5.90;4.97;;;12.00;95.20;;;;;;5073423;28;20618;-87
2021/05/28 01:39:08;;;;;;;4.80;4.30;;;12.00;94.30;;;;;;5084532;28;20686;-88
2021/05/28 01:41:38;;;;;;;6.07;5.53;;;11.90;94.10;;;;;;5090502;28;20647;-88
2021/05/28 01:44:09;;;;;;;5.10;4.70;;;12.00;94.20;;;;;;5092985;28;20655;-89
2021/05/28 01:46:37;;;;;;;5.23;4.80;;;12.00;93.80;;;;;;5080406;28;20644;-87
2021/05/28 01:49:06;;;;;;;5.07;4.60;;;12.00;93.70;;;;;;5084357;28;20728;-88
2021/05/28 01:51:34;;;;;;;5.50;5.00;;;11.90;93.60;;;;;;5073737;28;20653;-87
2021/05/28 01:54:02;;;;;;;6.10;5.40;;;11.90;93.70;;;;;;5081698;28;20687;-87
2021/05/28 01:56:34;;;;;;;5.50;5.00;;;11.90;93.90;;;;;;5088240;28;20957;-86
2021/05/28 01:59:09;;;;;;;6.57;4.80;;;11.70;94.50;;;;;;5078525;28;20637;-86
2021/05/28 02:01:37;;;;;;;5.07;4.63;;;11.80;94.70;;;;;;5082333;28;20736;-87
2021/05/28 02:04:08;;;;;;;5.43;4.93;;;11.90;94.80;;;;;;5093505;28;20632;-87
2021/05/28 02:06:37;;;;;;;7.03;6.33;;;12.00;94.70;;;;;;5073269;28;20682;-87
2021/05/28 02:09:08;;;;;;;6.30;5.70;;;12.10;94.40;;;;;;5075632;28;20655;-87
2021/05/28 02:11:41;;;;;;;5.57;4.97;;;12.10;94.40;;;;;;5073054;28;20620;-86
2021/05/28 02:14:14;;;;;;;5.97;5.37;;;12.10;94.30;;;;;;5082868;28;20674;-88
2021/05/28 02:16:45;;;;;;;5.73;4.73;;;12.20;94.10;;;;;;5073054;28;20621;-87
2021/05/28 02:19:15;;;;;;;5.53;4.90;;;12.30;93.60;;;;;;5072971;28;20602;-87
2021/05/28 02:21:48;;;;;;;5.07;4.67;;;12.40;93.20;;;;;;5073850;28;20616;-88
2021/05/28 02:24:22;;;;;;;5.50;5.00;;;12.40;93.50;;;;;;5074657;28;20665;-87
2021/05/28 02:27:06;;;;;;;4.87;4.47;;;12.40;93.10;;;;;;5076481;28;20651;-87
2021/05/28 02:29:42;;;;;;;6.00;5.40;;;12.50;92.80;;;;;;5084141;28;20636;-88
2021/05/28 02:32:11;;;;;;;4.77;4.37;;;12.50;93.20;;;;;;5087892;28;20625;-88
2021/05/28 02:34:40;;;;;;;5.80;5.30;;;12.30;93.00;;;;;;5083532;28;20629;-87
2021/05/28 02:37:09;;;;;;;6.13;5.53;;;12.30;93.30;;;;;;5092663;28;20612;-88
2021/05/28 02:39:36;;;;;;;6.10;5.50;;;12.20;93.30;;;;;;5085228;28;20911;-88
2021/05/28 02:42:06;;;;;;;6.80;5.40;;;12.10;93.30;;;;;;5092153;28;20723;-87
2021/05/28 02:44:34;;;;;;;5.40;4.70;;;12.10;93.40;;;;;;5089316;28;20681;-87
2021/05/28 02:47:04;;;;;;;5.47;4.97;;;12.10;93.50;;;;;;5083074;28;20728;-87
2021/05/28 02:49:35;;;;;;;5.83;5.23;;;12.00;93.50;;;;;;5077904;28;20641;-88
2021/05/28 02:52:06;;;;;;;5.27;4.77;;;11.80;93.80;;;;;;5081443;28;20989;-88
2021/05/28 02:54:34;;;;;;;5.67;4.80;;;11.60;94.40;;;;;;5070058;28;21369;-88
2021/05/28 02:57:08;;;;;;;5.47;4.97;;;11.70;94.80;;;;;;5087682;28;21495;-87
2021/05/28 02:59:39;;;;;;;7.30;4.83;;;11.90;94.70;;;;;;5078014;28;20642;-87
2021/05/28 03:02:09;;;;;;;5.70;4.97;;;11.80;94.50;;;;;;5076604;28;20661;-88
2021/05/28 03:04:44;;;;;;;6.13;5.53;;;11.70;94.50;;;;;;5080170;28;20688;-87
2021/05/28 03:07:13;;;;;;;5.40;4.90;;;11.70;94.50;;;;;;5080386;28;20617;-87
2021/05/28 03:09:42;;;;;;;13.13;11.37;;;11.80;94.30;;;;;;5100057;28;20600;-87
2021/05/28 03:12:12;;;;;;;8.33;7.53;;;11.90;94.00;;;;;;5099107;28;20652;-87
2021/05/28 03:14:42;;;;;;;5.30;4.40;;;11.60;94.10;;;;;;5080759;28;20637;-87
2021/05/28 03:17:11;;;;;;;4.93;4.43;;;11.40;95.20;;;;;;5086662;28;21216;-87
2021/05/28 03:19:44;;;;;;;4.67;4.27;;;11.30;95.30;;;;;;5080539;28;20639;-87
2021/05/28 03:22:33;;;;;;;6.80;4.13;;;11.60;95.10;;;;;;5091649;28;20970;-87
2021/05/28 03:25:04;;;;;;;4.57;4.17;;;11.70;94.70;;;;;;5089193;28;21217;-87
2021/05/28 03:27:48;;;;;;;4.87;4.47;;;11.70;94.40;;;;;;5091785;28;20641;-87
2021/05/28 03:30:20;;;;;;;4.50;4.07;;;11.70;94.30;;;;;;5089391;28;20630;-87
2021/05/28 03:32:55;;;;;;;3.60;3.30;;;11.80;94.20;;;;;;5082262;28;20644;-88
2021/05/28 03:35:27;;;;;;;4.77;4.30;;;11.80;94.30;;;;;;5084888;28;20665;-87
2021/05/28 03:37:57;;;;;;;4.23;3.83;;;11.80;94.40;;;;;;5091267;28;20639;-87
2021/05/28 03:40:29;;;;;;;3.73;3.43;;;11.80;94.10;;;;;;5089184;28;20656;-87
2021/05/28 03:43:15;;;;;;;7.67;4.50;;;11.60;94.00;;;;;;5075792;28;20626;-87
2021/05/28 03:45:56;;;;;;;4.00;3.70;;;11.40;94.30;;;;;;5090933;28;20743;-87
2021/05/28 03:48:31;;;;;;;4.87;4.30;;;11.50;94.60;;;;;;5073504;28;20629;-87
2021/05/28 03:51:04;;;;;;;4.60;4.20;;;11.50;94.90;;;;;;5079651;28;20621;-87
2021/05/28 03:53:35;;;;;;;4.73;4.33;;;11.60;94.50;;;;;;5090839;28;20662;-87
2021/05/28 03:56:07;;;;;;;5.17;3.93;;;11.60;94.10;;;;;;5090705;28;20628;-87
2021/05/28 03:58:38;;;;;;;4.20;3.83;;;11.60;94.20;;;;;;5071917;28;20687;-87
2021/05/28 04:01:09;;;;;;;3.80;3.50;;;11.70;94.40;;;;;;5088242;28;20677;-87
2021/05/28 04:03:40;;;;;;;4.47;4.07;;;11.60;94.00;;;;;;5083137;28;21068;-87
2021/05/28 04:06:09;;;;;;;4.10;3.40;;;11.70;93.90;;;;;;5087578;28;21224;-87
2021/05/28 04:08:45;;;;;;;4.03;3.63;;;11.80;93.80;;;;;;5087292;28;20620;-87
2021/05/28 04:11:14;;;;;;;4.40;3.77;;;11.80;93.80;;;;;;5079297;28;20636;-87
2021/05/28 04:13:47;;;;;;;5.53;4.40;;;11.70;93.20;;;;;;5087907;28;20633;-87
2021/05/28 04:16:19;;;;;;;4.07;3.67;;;11.60;93.90;;;;;;5070906;28;20648;-87
2021/05/28 04:18:48;;;;;;;4.40;4.00;;;11.40;93.90;;;;;;5077945;28;20617;-87
2021/05/28 04:21:23;;;;;;;5.17;4.67;;;11.30;94.10;;;;;;5076759;28;20644;-86
2021/05/28 04:24:00;;;;;;;6.17;5.40;;;11.30;94.00;;;;;;5072694;28;20660;-86
2021/05/28 04:26:33;;;;;;;5.30;4.80;;;10.90;94.10;;;;;;5088814;28;21587;-87
2021/05/28 04:29:05;;;;;;;4.70;4.23;;;10.70;94.70;;;;;;5071825;28;20634;-86
2021/05/28 04:31:41;;;;;;;5.30;4.40;;;10.60;95.40;;;;;;5073843;28;20616;-86
2021/05/28 04:34:13;;;;;;;7.87;4.27;;;10.70;95.60;;;;;;5089751;28;20674;-87
2021/05/28 04:36:48;;;;;;;5.10;3.73;;;10.70;95.60;;;;;;5105472;28;20644;-86
2021/05/28 04:39:19;;;;;;;6.53;4.57;;;10.80;95.60;;;;;;5089587;28;20644;-86
2021/05/28 04:41:57;;;;;;;5.10;4.43;;;10.80;95.60;;;;;;5090396;28;20698;-86
2021/05/28 04:44:36;;;;;;;7.13;4.70;;;10.80;95.60;;;;;;5075043;28;20760;-86
2021/05/28 04:47:22;;;;;;;5.10;4.40;;;10.90;95.80;;;;;;5072025;28;20959;-86
2021/05/28 04:49:59;;;;;;;5.60;4.60;;;11.00;95.80;;;;;;5085891;28;20724;-86
2021/05/28 04:52:35;;;;;;;5.70;5.20;;;11.00;95.90;;;;;;5087508;28;20640;-86
2021/05/28 04:55:08;;;;;;;6.03;5.20;;;11.00;95.80;;;;;;5083225;28;20620;-86
2021/05/28 04:57:38;;;;;;;8.37;6.03;;;11.00;95.80;;;;;;5074371;28;20630;-86
2021/05/28 05:00:10;;;;;;;7.27;5.10;;;11.10;95.70;;;;;;5083224;28;20621;-86
2021/05/28 05:02:39;;;;;;;11.03;6.77;;;11.20;95.40;;;;;;5090382;28;20669;-86
2021/05/28 05:05:09;;;;;;;11.63;6.70;;;11.40;95.30;;;;;;5085747;28;20719;-86
2021/05/28 05:07:38;;;;;;;6.60;5.33;;;11.30;94.80;;;;;;5092591;28;21023;-86
2021/05/28 05:10:06;;;;;;;7.97;6.30;;;11.30;94.60;;;;;;5084026;28;20652;-86
2021/05/28 05:12:33;;;;;;;9.80;5.60;;;11.20;94.90;;;;;;5092659;28;20612;-86
2021/05/28 05:15:00;;;;;;;7.60;5.83;;;11.00;95.10;;;;;;5085880;28;20652;-86
2021/05/28 05:17:27;;;;;;;7.30;6.60;;;11.20;95.30;;;;;;5073987;28;20866;-87
2021/05/28 05:19:54;;;;;;;8.10;6.17;;;11.30;94.90;;;;;;5081848;28;20620;-86
2021/05/28 05:22:20;;;;;;;7.50;6.30;;;11.40;94.80;;;;;;5086598;28;20972;-86
2021/05/28 05:24:47;;;;;;;7.60;5.30;;;11.60;94.50;;;;;;5080534;28;20640;-86
2021/05/28 05:27:27;;;;;;;;;;;;;;;;;;;;;
2021/05/28 05:30:16;;;;;;;8.27;5.97;;;11.30;94.10;;;;;;5065711;28;20806;-86
2021/05/28 05:32:43;;;;;;;6.30;5.53;;;11.70;94.30;;;;;;5081829;28;21223;-86
2021/05/28 05:35:33;;;;;;;6.67;5.90;;;11.90;94.10;;;;;;5083590;28;21216;-88
2021/05/28 05:38:19;;;;;;;7.37;6.70;;;12.00;93.50;;;;;;5090494;28;20628;-87
2021/05/28 05:41:03;;;;;;;6.53;5.93;;;11.90;93.20;;;;;;5081657;28;20628;-87
2021/05/28 05:43:34;;;;;;;8.10;7.30;;;11.90;93.30;;;;;;5079278;28;20632;-86
2021/05/28 05:46:02;;;;;;;8.23;6.50;;;11.50;93.30;;;;;;5090165;28;21248;-85
2021/05/28 05:48:30;;;;;;;6.77;6.10;;;11.50;93.50;;;;;;5088717;28;20678;-86
2021/05/28 05:50:56;;;;;;;8.03;6.20;;;11.70;93.70;;;;;;5085561;28;21228;-85
2021/05/28 05:53:23;;;;;;;7.27;5.57;;;11.60;93.80;;;;;;5088089;28;20657;-86
2021/05/28 05:55:50;;;;;;;8.23;6.40;;;11.80;93.80;;;;;;5078891;28;20633;-86
2021/05/28 05:58:16;;;;;;;7.17;6.13;;;11.80;93.40;;;;;;5073980;28;20928;-86
2021/05/28 06:00:42;;;;;;;6.70;6.00;;;11.80;93.40;;;;;;5089287;28;20628;-85
2021/05/28 06:03:09;;;;;;;7.97;6.30;;;12.00;93.50;;;;;;5086949;28;21235;-86
2021/05/28 06:05:36;;;;;;;8.07;6.53;;;11.80;93.50;;;;;;5086220;28;20710;-86
2021/05/28 06:08:04;;;;;;;9.13;6.67;;;11.90;93.40;;;;;;5089260;28;20624;-86
2021/05/28 06:10:31;;;;;;;10.40;6.90;;;12.30;93.00;;;;;;5080233;28;20610;-87
2021/05/28 06:13:04;;;;;;;7.77;6.00;;;12.40;92.30;;;;;;5074998;28;20628;-86
2021/05/28 06:15:30;;;;;;;6.90;6.20;;;12.40;92.00;;;;;;5089627;28;20612;-86
2021/05/28 06:18:00;;;;;;;7.77;6.30;;;12.40;91.90;;;;;;5076976;28;20629;-85
2021/05/28 06:20:27;;;;;;;7.63;6.90;;;12.20;92.20;;;;;;5084675;28;20655;-85
2021/05/28 06:22:58;;;;;;;8.80;6.77;;;12.40;92.20;;;;;;5089988;28;20666;-86
2021/05/28 06:25:25;;;;;;;7.60;6.80;;;12.30;92.00;;;;;;5087318;28;21009;-86
2021/05/28 06:27:53;;;;;;;6.53;5.93;;;12.30;92.00;;;;;;5087567;28;20621;-86
2021/05/28 06:30:20;;;;;;;7.90;5.67;;;12.40;92.20;;;;;;5091882;28;20612;-86
2021/05/28 06:32:46;;;;;;;10.73;6.70;;;12.60;91.90;;;;;;5091476;28;20601;-85
2021/05/28 06:35:13;;;;;;;13.40;7.50;;;12.20;90.80;;;;;;5075725;28;20704;-86
2021/05/28 06:37:40;;;;;;;7.13;6.40;;;12.40;91.80;;;;;;5083076;28;20629;-86
2021/05/28 06:40:11;;;;;;;9.27;7.33;;;12.70;91.30;;;;;;5069041;28;20657;-86
2021/05/28 06:42:37;;;;;;;8.77;7.07;;;12.30;91.20;;;;;;5076616;28;20618;-87
2021/05/28 06:45:08;;;;;;;9.60;7.83;;;12.30;91.70;;;;;;5085265;28;20822;-85
2021/05/28 06:47:34;;;;;;;9.77;6.27;;;12.20;91.90;;;;;;5090424;28;20700;-85
2021/05/28 06:50:01;;;;;;;9.70;6.80;;;12.60;91.80;;;;;;5087728;28;20635;-86
2021/05/28 06:52:27;;;;;;;12.63;7.03;;;12.80;91.20;;;;;;5083648;28;20659;-86
2021/05/28 06:54:54;;;;;;;8.43;7.43;;;13.00;90.90;;;;;;5085787;28;20633;-86
2021/05/28 06:57:22;;;;;;;10.27;6.30;;;12.80;90.20;;;;;;5087925;28;20621;-86
2021/05/28 06:59:49;;;;;;;11.80;10.17;;;12.70;90.80;;;;;;5086417;28;20626;-86
2021/05/28 07:02:15;;;;;;;7.13;6.33;;;13.00;90.90;;;;;;5089214;28;20650;-86
2021/05/28 07:04:42;;;;;;;8.03;6.23;;;13.10;90.70;;;;;;5090431;28;20644;-86
2021/05/28 07:07:08;;;;;;;6.33;5.73;;;13.10;90.50;;;;;;5076633;28;21037;-86
2021/05/28 07:09:38;;;;;;;6.50;5.67;;;13.10;90.20;;;;;;5083340;28;21191;-87
2021/05/28 07:12:05;;;;;;;6.83;5.53;;;13.30;89.60;;;;;;5079953;28;21167;-86
2021/05/28 07:14:32;;;;;;;9.50;4.90;;;13.10;87.70;;;;;;5079074;28;20622;-86
2021/05/28 07:16:59;;;;;;;8.83;6.23;;;13.50;89.10;;;;;;5089619;28;20619;-84
2021/05/28 07:19:25;;;;;;;6.50;5.90;;;13.40;88.70;;;;;;5089022;28;20618;-86
2021/05/28 07:21:52;;;;;;;8.80;6.30;;;13.30;89.10;;;;;;5090182;28;20633;-87
2021/05/28 07:24:18;;;;;;;7.30;5.90;;;13.70;88.60;;;;;;5090624;28;20666;-86
2021/05/28 07:26:45;;;;;;;7.83;6.60;;;13.80;87.50;;;;;;5091422;28;21040;-86
2021/05/28 07:29:11;;;;;;;6.33;4.97;;;13.80;86.40;;;;;;5092332;28;20622;-87
2021/05/28 07:31:39;;;;;;;7.27;6.00;;;13.60;88.90;;;;;;5082266;28;20622;-87
2021/05/28 07:34:05;;;;;;;5.80;5.30;;;13.90;87.80;;;;;;5091322;28;20618;-86
2021/05/28 07:36:32;;;;;;;6.43;5.83;;;14.10;87.60;;;;;;5076540;28;20605;-86
2021/05/28 07:39:11;;;;;;;6.00;5.40;;;14.30;85.90;;;;;;5086634;28;21189;-86
2021/05/28 07:41:41;;;;;;;5.07;4.57;;;13.90;85.40;;;;;;5088541;28;20631;-87
2021/05/28 07:44:08;;;;;;;6.87;5.63;;;14.10;86.00;;;;;;5087182;28;20653;-87
2021/05/28 07:46:40;;;;;;;5.40;4.23;;;14.40;86.30;;;;;;5089830;28;20726;-87
2021/05/28 07:49:08;;;;;;;5.57;5.03;;;14.80;84.90;;;;;;5077680;28;20627;-84
2021/05/28 07:51:35;;;;;;;5.90;5.17;;;14.60;81.90;;;;;;5088379;28;20626;-85
2021/05/28 07:54:04;;;;;;;5.70;5.20;;;14.50;82.10;;;;;;5089764;28;21053;-86
2021/05/28 07:56:30;;;;;;;4.67;4.27;;;14.80;83.00;;;;;;5083835;28;20703;-85
2021/05/28 07:58:57;;;;;;;5.63;5.13;;;14.80;82.60;;;;;;5089965;28;20718;-86
2021/05/28 08:01:23;;;;;;;6.13;5.63;;;14.60;80.90;;;;;;5082668;28;20694;-86
2021/05/28 08:03:51;;;;;;;7.50;5.90;;;14.80;83.40;;;;;;5089408;28;20633;-86
2021/05/28 08:06:18;;;;;;;6.20;5.60;;;15.30;80.90;;;;;;5086684;28;20758;-86
2021/05/28 08:08:45;;;;;;;8.73;6.50;;;15.40;79.90;;;;;;5090124;28;21203;-86
2021/05/28 08:11:11;;;;;;;6.87;5.17;;;15.00;79.30;;;;;;5088126;28;20609;-86
2021/05/28 08:13:39;;;;;;;7.40;5.20;;;14.30;80.50;;;;;;5084013;28;20730;-86
2021/05/28 08:16:06;;;;;;;5.97;5.13;;;14.30;81.90;;;;;;5085014;28;20680;-87
2021/05/28 08:18:43;;;;;;;5.27;4.77;;;14.30;81.30;;;;;;5086841;28;21189;-85
2021/05/28 08:21:11;;;;;;;7.67;6.63;;;14.80;81.10;;;;;;5087426;28;20743;-86
2021/05/28 08:23:40;;;;;;;7.67;6.97;;;15.30;79.80;;;;;;5089312;28;20616;-87
2021/05/28 08:26:07;;;;;;;6.30;5.80;;;15.00;80.30;;;;;;5084717;28;20769;-87
2021/05/28 08:28:35;;;;;;;9.50;6.37;;;15.00;81.40;;;;;;5089118;28;20611;-87
2021/05/28 08:31:07;;;;;;;6.60;6.00;;;14.50;81.30;;;;;;5089433;28;20630;-88
2021/05/28 08:33:35;;;;;;;11.63;5.47;;;15.10;83.00;;;;;;5082081;28;20663;-87
2021/05/28 08:36:02;;;;;;;6.90;5.33;;;15.50;78.10;;;;;;5087673;28;20631;-88
2021/05/28 08:38:28;;;;;;;5.43;4.93;;;15.80;76.70;;;;;;5090358;28;20620;-88
2021/05/28 08:40:56;;;;;;;5.13;4.63;;;15.80;75.60;;;;;;5088663;28;20624;-88
2021/05/28 08:43:24;;;;;;;6.13;5.53;;;16.00;75.20;;;;;;5086723;28;20648;-87
2021/05/28 08:45:51;;;;;;;6.30;5.60;;;16.20;75.70;;;;;;5087089;28;20670;-88
2021/05/28 08:48:20;;;;;;;5.30;4.70;;;15.60;73.40;;;;;;5089872;28;21212;-87
2021/05/28 08:50:48;;;;;;;5.63;5.00;;;15.10;74.20;;;;;;5089933;28;20633;-89
2021/05/28 08:53:15;;;;;;;8.00;5.60;;;15.20;73.80;;;;;;5100503;28;20601;-89
2021/05/28 08:55:44;;;;;;;5.80;5.23;;;15.10;73.40;;;;;;5088827;28;20636;-89
2021/05/28 08:58:13;;;;;;;5.70;5.07;;;15.00;74.80;;;;;;5085712;28;20621;-89
2021/05/28 09:00:44;;;;;;;5.37;4.93;;;15.10;76.00;;;;;;5089139;28;20625;-89
2021/05/28 09:03:19;;;;;;;7.43;5.37;;;15.30;73.80;;;;;;5090765;28;20673;-88
2021/05/28 09:05:47;;;;;;;4.93;4.53;;;15.50;75.50;;;;;;5085007;28;20675;-89
2021/05/28 09:08:13;;;;;;;6.60;5.10;;;15.90;73.70;;;;;;5076720;28;20669;-87
2021/05/28 09:10:41;;;;;;;5.27;4.87;;;16.00;73.80;;;;;;5088160;28;20635;-87
2021/05/28 09:13:14;;;;;;;5.50;4.83;;;15.70;71.80;;;;;;5084715;28;20613;-88
2021/05/28 09:15:43;;;;;;;5.40;4.90;;;15.40;73.50;;;;;;5078208;28;20659;-88
2021/05/28 09:18:10;;;;;;;6.77;6.17;;;15.80;74.50;;;;;;5081094;28;20621;-88
2021/05/28 09:20:37;;;;;;;7.37;4.90;;;15.70;72.20;;;;;;5088628;28;20755;-88
2021/05/28 09:23:13;;;;;;;6.57;5.83;;;15.60;72.90;;;;;;5089162;28;21168;-87
2021/05/28 09:25:57;;;;;;;5.73;5.30;;;15.30;72.10;;;;;;5086801;28;20712;-88
2021/05/28 09:28:25;;;;;;;7.53;5.93;;;15.50;73.60;;;;;;5073008;28;20613;-88
2021/05/28 09:30:57;;;;;;;5.67;5.17;;;15.50;72.00;;;;;;5083125;28;20612;-88
2021/05/28 09:33:25;;;;;;;6.20;5.60;;;15.80;72.10;;;;;;5088953;28;20716;-89
2021/05/28 09:35:53;;;;;;;6.57;6.07;;;16.30;72.20;;;;;;5091036;28;20628;-88
2021/05/28 09:38:21;;;;;;;7.60;5.60;;;16.90;71.40;;;;;;5092825;28;20715;-87
2021/05/28 09:40:47;;;;;;;5.37;4.80;;;17.20;69.70;;;;;;5092777;28;20662;-88
2021/05/28 09:43:22;;;;;;;5.03;4.53;;;17.00;68.60;;;;;;5092714;28;20620;-88
2021/05/28 09:45:50;;;;;;;5.43;4.23;;;16.90;69.40;;;;;;5091293;28;20640;-88
2021/05/28 09:48:29;;;;;;;4.50;4.10;;;17.30;70.10;;;;;;5082660;28;20613;-88
2021/05/28 09:50:58;;;;;;;6.00;5.00;;;17.40;65.30;;;;;;5081234;28;20621;-88
2021/05/28 09:53:36;;;;;;;6.47;5.87;;;17.30;66.50;;;;;;5078918;28;20674;-88
2021/05/28 09:56:26;;;;;;;6.35;5.30;;;17.20;66.90;;;;;;5096075;28;20754;-87
2021/05/28 09:58:59;;;;;;;7.00;3.97;;;17.00;65.90;;;;;;5092068;28;20189;-88
2021/05/28 10:01:26;;;;;;;5.67;5.07;;;16.70;66.80;;;;;;5080438;28;21236;-88
2021/05/28 10:04:01;;;;;;;4.60;4.20;;;17.20;68.60;;;;;;5084599;28;20634;-88
2021/05/28 10:06:29;;;;;;;8.13;5.17;;;17.50;66.50;;;;;;5084935;28;20609;-88
2021/05/28 10:08:59;;;;;;;5.47;4.97;;;16.80;63.90;;;;;;5086120;28;20632;-88
2021/05/28 10:11:26;;;;;;;4.60;4.20;;;17.10;65.80;;;;;;5079929;28;21014;-87
2021/05/28 10:13:54;;;;;;;5.90;5.03;;;17.00;66.60;;;;;;5094664;28;20659;-88
2021/05/28 10:16:24;;;;;;;4.80;4.40;;;16.70;65.30;;;;;;5086877;28;21291;-88
2021/05/28 10:18:52;;;;;;;8.40;4.83;;;16.40;65.70;;;;;;5084281;28;20604;-88
2021/05/28 10:21:19;;;;;;;5.33;4.83;;;16.90;67.40;;;;;;5086388;28;20637;-88
2021/05/28 10:23:47;;;;;;;5.37;4.87;;;17.40;67.00;;;;;;5083574;28;20616;-89
2021/05/28 10:26:16;;;;;;;6.20;5.60;;;17.50;63.90;;;;;;5072929;28;20657;-87
2021/05/28 10:28:45;;;;;;;6.27;5.67;;;17.30;66.50;;;;;;5073027;28;20760;-89
2021/05/28 10:31:12;;;;;;;5.83;5.17;;;17.30;65.90;;;;;;5084623;28;21220;-90
2021/05/28 10:33:48;;;;;;;6.60;6.00;;;17.30;65.10;;;;;;5084707;28;21210;-88
2021/05/28 10:36:39;;;;;;;6.20;5.70;;;17.50;65.80;;;;;;5090925;28;21205;-89
2021/05/28 10:39:07;;;;;;;7.87;5.43;;;17.60;64.90;;;;;;5083063;28;20617;-89
2021/05/28 10:41:36;;;;;;;5.80;5.00;;;17.20;64.80;;;;;;5088848;28;20708;-89
2021/05/28 10:44:07;;;;;;;5.70;5.10;;;16.20;63.30;;;;;;5074247;28;20720;-89
2021/05/28 10:46:34;;;;;;;6.67;6.07;;;16.20;66.30;;;;;;5079232;28;20626;-89
2021/05/28 10:49:14;;;;;;;7.33;4.90;;;16.50;66.00;;;;;;5088931;28;20618;-89
2021/05/28 10:52:03;;;;;;;5.77;4.73;;;16.60;64.60;;;;;;5091975;28;20724;-89
2021/05/28 10:54:34;;;;;;;4.87;4.37;;;17.10;65.50;;;;;;5084431;28;20621;-88
2021/05/28 10:57:19;;;;;;;6.47;5.20;;;16.60;63.80;;;;;;5091304;28;20723;-88
2021/05/28 10:59:47;;;;;;;4.40;3.53;;;17.60;64.60;;;;;;5089935;28;21026;-90
2021/05/28 11:02:16;;;;;;;4.30;3.90;;;18.00;62.20;;;;;;5074520;28;20724;-89
2021/05/28 11:05:06;;;;;;;4.10;3.27;;;18.60;62.10;;;;;;5073815;28;20660;-89
2021/05/28 11:07:41;;;;;;;3.13;2.67;;;19.30;59.00;;;;;;5067471;28;20628;-89
2021/05/28 11:10:19;;;;;;;3.80;3.07;;;19.30;57.80;;;;;;5070661;28;20630;-88
2021/05/28 11:12:46;;;;;;;5.23;3.80;;;18.80;57.60;;;;;;5070643;28;20619;-89
2021/05/28 11:15:15;;;;;;;4.10;3.70;;;18.60;58.00;;;;;;5075863;28;20627;-89
2021/05/28 11:17:57;;;;;;;4.10;3.70;;;18.60;57.40;;;;;;5078514;28;20638;-89
2021/05/28 11:20:31;;;;;;;3.87;3.37;;;18.50;56.00;;;;;;5090641;28;20624;-89
2021/05/28 11:22:59;;;;;;;3.43;3.13;;;18.20;55.70;;;;;;5072924;28;20627;-88
2021/05/28 11:25:31;;;;;;;3.40;3.10;;;18.60;57.10;;;;;;5090310;28;20770;-89
2021/05/28 11:28:09;;;;;;;3.57;3.27;;;19.50;57.30;;;;;;5082223;28;20983;-89
2021/05/28 11:30:49;;;;;;;4.90;4.27;;;19.80;55.70;;;;;;5070857;28;20620;-89
2021/05/28 11:33:41;;;;;;;3.27;2.93;;;20.10;54.30;;;;;;5070014;28;21396;-89
2021/05/28 11:36:39;;;;;;;3.73;3.40;;;18.80;52.00;;;;;;5075864;28;20617;-89
2021/05/28 11:39:11;;;;;;;3.70;3.40;;;18.60;56.00;;;;;;5078861;28;20617;-89
2021/05/28 11:41:45;;;;;;;3.47;3.17;;;18.60;54.70;;;;;;5080201;28;21042;-89
2021/05/28 11:44:17;;;;;;;3.93;3.63;;;18.50;55.40;;;;;;5078460;28;21126;-90
2021/05/28 11:46:46;;;;;;;6.00;3.90;;;18.90;56.30;;;;;;5079840;28;20638;-89
2021/05/28 11:49:15;;;;;;;3.40;3.10;;;19.80;54.30;;;;;;5079763;28;20613;-89
2021/05/28 11:51:42;;;;;;;3.60;3.30;;;20.60;54.50;;;;;;5081417;28;20645;-88
2021/05/28 11:54:25;;;;;;;3.70;3.10;;;21.60;53.50;;;;;;5078324;28;20728;-90
2021/05/28 11:56:58;;;;;;;3.37;3.17;;;22.30;51.70;;;;;;5078199;28;20632;-90
2021/05/28 11:59:49;;;;;;;2.90;2.70;;;21.30;50.70;;;;;;5087408;28;20689;-90
2021/05/28 12:02:48;;;;;;;4.10;3.40;;;21.60;53.20;;;;;;5085096;28;20632;-89
2021/05/28 12:05:29;;;;;;;3.50;3.20;;;23.90;48.00;;;;;;5026591;28;20663;-89
2021/05/28 12:07:59;;;;;;;3.63;3.40;;;24.90;47.80;;;;;;5077177;28;20624;-90
2021/05/28 12:10:28;;;;;;;4.10;3.10;;;26.60;44.40;;;;;;5088564;28;21218;-91
2021/05/28 12:13:04;;;;;;;3.30;3.00;;;26.50;43.20;;;;;;5083793;28;20634;-91
2021/05/28 12:15:33;;;;;;;3.57;3.27;;;25.80;44.30;;;;;;5089316;28;20633;-88
2021/05/28 12:18:07;;;;;;;4.20;3.80;;;25.20;44.10;;;;;;5088525;28;20635;-91
2021/05/28 12:20:39;;;;;;;5.17;3.40;;;25.00;44.40;;;;;;5072776;28;20778;-90
2021/05/28 12:23:14;;;;;;;3.97;2.63;;;24.20;45.10;;;;;;5089001;28;20736;-89
2021/05/28 12:25:48;;;;;;;3.03;2.83;;;24.40;45.10;;;;;;5088989;28;21265;-90
2021/05/28 12:28:17;;;;;;;3.50;2.10;;;26.10;43.60;;;;;;5078644;28;20646;-90
2021/05/28 12:30:46;;;;;;;2.60;2.40;;;28.00;40.20;;;;;;5079010;28;20622;-87
2021/05/28 12:33:18;;;;;;;3.30;3.10;;;29.30;38.10;;;;;;5086678;28;20624;-90
2021/05/28 12:35:51;;;;;;;2.83;2.63;;;29.90;36.10;;;;;;5073438;28;20639;-88
2021/05/28 12:38:19;;;;;;;3.63;3.33;;;27.60;36.80;;;;;;5087779;28;20692;-87
2021/05/28 12:40:48;;;;;;;4.33;2.50;;;25.20;37.20;;;;;;5089900;28;20621;-91
2021/05/28 12:43:37;;;;;;;2.70;2.50;;;23.80;41.10;;;;;;5086792;28;20614;-90
2021/05/28 12:46:04;;;;;;;2.70;2.50;;;23.70;43.50;;;;;;5079655;28;20672;-90
2021/05/28 12:48:52;;;;;;;2.80;2.60;;;25.80;40.90;;;;;;5083321;28;20645;-90
2021/05/28 12:51:29;;;;;;;2.93;2.73;;;28.40;37.60;;;;;;5086699;28;20629;-89
2021/05/28 12:53:59;;;;;;;5.43;2.10;;;29.20;36.90;;;;;;5085036;28;20628;-88
2021/05/28 12:56:29;;;;;;;2.30;2.10;;;27.90;36.20;;;;;;5077170;28;20637;-88
2021/05/28 12:58:57;;;;;;;2.77;2.57;;;26.60;36.90;;;;;;5081429;28;20620;-88
2021/05/28 13:01:28;;;;;;;3.00;2.80;;;25.20;39.60;;;;;;5093348;28;20629;-88
2021/05/28 13:04:00;;;;;;;3.00;2.70;;;24.40;41.70;;;;;;5088403;28;20628;-88
2021/05/28 13:06:40;;;;;;;6.67;3.10;;;25.10;42.30;;;;;;5074372;28;20765;-88